sensor_id;sensor_type;location;lat;lon;timestamp;pressure;altitude;pressure_sealevel;temperature;humidity
16595;BME280;8410;52.532;13.336;2022-07-22T00:01:50;101228.53;;;25.41;72.55
16595;BME280;8410;52.532;13.336;2022-07-22T00:04:19;101230.63;;;25.33;73.16
16595;BME280;8410;52.532;13.336;2022-07-22T00:06:47;101230.53;;;25.56;72.49
16595;BME280;8410;52.532;13.336;2022-07-22T00:09:15;101237.06;;;25.25;73.79
16595;BME280;8410;52.532;13.336;2022-07-22T00:11:43;101241.47;;;24.81;75.41
16595;BME280;8410;52.532;13.336;2022-07-22T00:14:10;101234.69;;;25.19;73.25
16595;BME280;8410;52.532;13.336;2022-07-22T00:16:40;101235.22;;;25.05;73.80
16595;BME280;8410;52.532;13.336;2022-07-22T00:19:08;101238.00;;;25.02;72.93
16595;BME280;8410;52.532;13.336;2022-07-22T00:21:37;101239.56;;;25.28;71.41
16595;BME280;8410;52.532;13.336;2022-07-22T00:24:05;101251.00;;;25.29;70.64
16595;BME280;8410;52.532;13.336;2022-07-22T00:26:33;101253.44;;;24.66;73.41
16595;BME280;8410;52.532;13.336;2022-07-22T00:29:01;101244.84;;;25.28;70.55
16595;BME280;8410;52.532;13.336;2022-07-22T00:31:29;101243.00;;;24.86;72.36
16595;BME280;8410;52.532;13.336;2022-07-22T00:33:59;101244.97;;;25.25;70.58
16595;BME280;8410;52.532;13.336;2022-07-22T00:36:28;101242.75;;;25.15;71.46
16595;BME280;8410;52.532;13.336;2022-07-22T00:38:58;101249.00;;;25.12;70.52
16595;BME280;8410;52.532;13.336;2022-07-22T00:41:27;101255.13;;;24.91;71.12
16595;BME280;8410;52.532;13.336;2022-07-22T00:44:00;101254.13;;;25.17;70.19
16595;BME280;8410;52.532;13.336;2022-07-22T00:46:30;101257.28;;;25.03;71.21
16595;BME280;8410;52.532;13.336;2022-07-22T00:48:59;101257.41;;;25.00;70.18
16595;BME280;8410;52.532;13.336;2022-07-22T00:51:28;101258.66;;;24.68;70.87
16595;BME280;8410;52.532;13.336;2022-07-22T00:54:00;101257.38;;;24.06;74.38
16595;BME280;8410;52.532;13.336;2022-07-22T00:56:28;101263.75;;;24.49;72.01
16595;BME280;8410;52.532;13.336;2022-07-22T00:59:00;101260.53;;;24.40;72.51
16595;BME280;8410;52.532;13.336;2022-07-22T01:01:28;101262.94;;;24.70;71.60
16595;BME280;8410;52.532;13.336;2022-07-22T01:03:56;101268.41;;;24.40;72.26
16595;BME280;8410;52.532;13.336;2022-07-22T01:06:27;101267.59;;;24.38;72.45
16595;BME280;8410;52.532;13.336;2022-07-22T01:08:57;101264.53;;;24.74;71.75
16595;BME280;8410;52.532;13.336;2022-07-22T01:11:26;101250.47;;;24.75;72.10
16595;BME280;8410;52.532;13.336;2022-07-22T01:13:56;101254.25;;;24.68;71.24
16595;BME280;8410;52.532;13.336;2022-07-22T01:16:25;101266.41;;;24.49;72.43
16595;BME280;8410;52.532;13.336;2022-07-22T01:18:53;101259.16;;;24.54;71.22
16595;BME280;8410;52.532;13.336;2022-07-22T01:21:23;101263.34;;;23.32;76.11
16595;BME280;8410;52.532;13.336;2022-07-22T01:23:51;101261.41;;;24.16;73.86
16595;BME280;8410;52.532;13.336;2022-07-22T01:26:20;101258.44;;;24.25;74.09
16595;BME280;8410;52.532;13.336;2022-07-22T01:28:47;101255.06;;;24.47;71.54
16595;BME280;8410;52.532;13.336;2022-07-22T01:31:15;101260.22;;;23.99;73.59
16595;BME280;8410;52.532;13.336;2022-07-22T01:33:43;101254.38;;;24.65;71.79
16595;BME280;8410;52.532;13.336;2022-07-22T01:36:12;101248.50;;;24.80;70.77
16595;BME280;8410;52.532;13.336;2022-07-22T01:38:41;101257.00;;;24.65;71.43
16595;BME280;8410;52.532;13.336;2022-07-22T01:41:09;101254.25;;;24.45;72.82
16595;BME280;8410;52.532;13.336;2022-07-22T01:43:37;101257.69;;;24.70;71.44
16595;BME280;8410;52.532;13.336;2022-07-22T01:46:05;101257.41;;;24.29;73.01
16595;BME280;8410;52.532;13.336;2022-07-22T01:48:33;101255.34;;;24.37;72.73
16595;BME280;8410;52.532;13.336;2022-07-22T01:51:02;101252.66;;;24.39;72.45
16595;BME280;8410;52.532;13.336;2022-07-22T01:53:30;101262.56;;;24.32;73.01
16595;BME280;8410;52.532;13.336;2022-07-22T01:55:59;101259.22;;;24.04;73.74
16595;BME280;8410;52.532;13.336;2022-07-22T01:58:27;101261.44;;;23.89;74.46
16595;BME280;8410;52.532;13.336;2022-07-22T02:00:54;101261.41;;;23.38;77.64
16595;BME280;8410;52.532;13.336;2022-07-22T02:03:22;101255.66;;;24.05;75.00
16595;BME280;8410;52.532;13.336;2022-07-22T02:05:50;101264.94;;;24.15;73.78
16595;BME280;8410;52.532;13.336;2022-07-22T02:08:18;101260.19;;;24.01;74.88
16595;BME280;8410;52.532;13.336;2022-07-22T02:10:46;101256.31;;;23.60;76.64
16595;BME280;8410;52.532;13.336;2022-07-22T02:13:15;101262.03;;;23.97;74.84
16595;BME280;8410;52.532;13.336;2022-07-22T02:15:43;101270.31;;;24.12;73.60
16595;BME280;8410;52.532;13.336;2022-07-22T02:18:12;101265.19;;;24.09;73.87
16595;BME280;8410;52.532;13.336;2022-07-22T02:20:42;101267.75;;;23.85;74.95
16595;BME280;8410;52.532;13.336;2022-07-22T02:23:10;101265.13;;;24.34;73.66
16595;BME280;8410;52.532;13.336;2022-07-22T02:25:40;101265.25;;;24.06;74.76
16595;BME280;8410;52.532;13.336;2022-07-22T02:28:08;101265.03;;;23.87;75.11
16595;BME280;8410;52.532;13.336;2022-07-22T02:30:38;101263.53;;;24.30;73.93
16595;BME280;8410;52.532;13.336;2022-07-22T02:33:07;101267.00;;;24.07;74.57
16595;BME280;8410;52.532;13.336;2022-07-22T02:35:35;101265.47;;;23.99;74.60
16595;BME280;8410;52.532;13.336;2022-07-22T02:38:03;101269.09;;;24.22;74.10
16595;BME280;8410;52.532;13.336;2022-07-22T02:40:31;101267.31;;;23.97;75.45
16595;BME280;8410;52.532;13.336;2022-07-22T02:42:59;101267.41;;;23.94;75.57
16595;BME280;8410;52.532;13.336;2022-07-22T02:45:27;101270.50;;;23.82;75.70
16595;BME280;8410;52.532;13.336;2022-07-22T02:47:57;101274.53;;;23.92;74.88
16595;BME280;8410;52.532;13.336;2022-07-22T02:50:25;101282.47;;;23.63;76.57
16595;BME280;8410;52.532;13.336;2022-07-22T02:52:53;101272.88;;;23.62;77.61
16595;BME280;8410;52.532;13.336;2022-07-22T02:55:21;101279.09;;;24.11;74.83
16595;BME280;8410;52.532;13.336;2022-07-22T02:57:49;101280.72;;;24.15;74.52
16595;BME280;8410;52.532;13.336;2022-07-22T03:00:17;101275.16;;;23.74;76.34
16595;BME280;8410;52.532;13.336;2022-07-22T03:02:48;101275.72;;;24.32;74.10
16595;BME280;8410;52.532;13.336;2022-07-22T03:05:17;101267.63;;;23.35;76.55
16595;BME280;8410;52.532;13.336;2022-07-22T03:07:45;101276.59;;;23.56;77.63
16595;BME280;8410;52.532;13.336;2022-07-22T03:10:15;101270.84;;;23.96;75.60
16595;BME280;8410;52.532;13.336;2022-07-22T03:12:43;101282.84;;;22.97;79.48
16595;BME280;8410;52.532;13.336;2022-07-22T03:15:10;101269.00;;;23.73;76.39
16595;BME280;8410;52.532;13.336;2022-07-22T03:17:39;101271.59;;;23.75;77.32
16595;BME280;8410;52.532;13.336;2022-07-22T03:20:09;101280.31;;;23.49;77.99
16595;BME280;8410;52.532;13.336;2022-07-22T03:22:39;101271.78;;;23.69;76.83
16595;BME280;8410;52.532;13.336;2022-07-22T03:25:08;101278.38;;;23.82;75.51
16595;BME280;8410;52.532;13.336;2022-07-22T03:27:36;101270.13;;;23.40;77.94
16595;BME280;8410;52.532;13.336;2022-07-22T03:30:05;101267.84;;;24.07;75.01
16595;BME280;8410;52.532;13.336;2022-07-22T03:32:33;101279.47;;;23.48;76.67
16595;BME280;8410;52.532;13.336;2022-07-22T03:35:02;101276.13;;;23.96;74.87
16595;BME280;8410;52.532;13.336;2022-07-22T03:37:30;101275.75;;;23.82;75.17
16595;BME280;8410;52.532;13.336;2022-07-22T03:40:00;101288.34;;;23.97;75.37
16595;BME280;8410;52.532;13.336;2022-07-22T03:42:28;101286.75;;;23.93;75.80
16595;BME280;8410;52.532;13.336;2022-07-22T03:44:56;101285.72;;;24.23;73.69
16595;BME280;8410;52.532;13.336;2022-07-22T03:47:23;101287.31;;;24.27;72.86
16595;BME280;8410;52.532;13.336;2022-07-22T03:49:52;101288.78;;;23.85;75.54
16595;BME280;8410;52.532;13.336;2022-07-22T03:52:20;101286.00;;;24.15;73.92
16595;BME280;8410;52.532;13.336;2022-07-22T03:54:48;101285.78;;;24.21;73.76
16595;BME280;8410;52.532;13.336;2022-07-22T03:57:17;101281.50;;;24.42;73.50
16595;BME280;8410;52.532;13.336;2022-07-22T03:59:46;101290.31;;;23.92;75.46
16595;BME280;8410;52.532;13.336;2022-07-22T04:02:14;101284.28;;;24.14;73.57
16595;BME280;8410;52.532;13.336;2022-07-22T04:04:42;101285.78;;;24.21;73.52
16595;BME280;8410;52.532;13.336;2022-07-22T04:07:10;101291.91;;;23.96;75.83
16595;BME280;8410;52.532;13.336;2022-07-22T04:09:38;101287.25;;;23.78;75.28
16595;BME280;8410;52.532;13.336;2022-07-22T04:12:07;101288.25;;;24.26;73.91
16595;BME280;8410;52.532;13.336;2022-07-22T04:14:36;101292.53;;;24.28;73.66
16595;BME280;8410;52.532;13.336;2022-07-22T04:17:04;101293.19;;;24.10;74.74
16595;BME280;8410;52.532;13.336;2022-07-22T04:19:32;101296.69;;;23.02;77.53
16595;BME280;8410;52.532;13.336;2022-07-22T04:22:00;101302.50;;;23.12;78.38
16595;BME280;8410;52.532;13.336;2022-07-22T04:24:28;101299.41;;;23.54;76.99
16595;BME280;8410;52.532;13.336;2022-07-22T04:26:56;101296.16;;;24.01;75.36
16595;BME280;8410;52.532;13.336;2022-07-22T04:29:24;101286.94;;;24.37;73.32
16595;BME280;8410;52.532;13.336;2022-07-22T04:31:53;101292.59;;;24.02;74.70
16595;BME280;8410;52.532;13.336;2022-07-22T04:34:28;101305.78;;;23.75;75.32
16595;BME280;8410;52.532;13.336;2022-07-22T04:36:55;101299.72;;;23.45;77.31
16595;BME280;8410;52.532;13.336;2022-07-22T04:39:23;101301.44;;;23.74;75.36
16595;BME280;8410;52.532;13.336;2022-07-22T04:41:51;101302.63;;;23.90;74.93
16595;BME280;8410;52.532;13.336;2022-07-22T04:44:19;101299.56;;;23.77;75.77
16595;BME280;8410;52.532;13.336;2022-07-22T04:46:47;101304.34;;;23.91;74.78
16595;BME280;8410;52.532;13.336;2022-07-22T04:49:16;101303.13;;;24.02;74.28
16595;BME280;8410;52.532;13.336;2022-07-22T04:51:44;101312.47;;;23.84;74.86
16595;BME280;8410;52.532;13.336;2022-07-22T04:54:12;101315.28;;;23.79;75.09
16595;BME280;8410;52.532;13.336;2022-07-22T04:56:40;101307.25;;;24.09;74.41
16595;BME280;8410;52.532;13.336;2022-07-22T04:59:10;101309.78;;;23.32;76.19
16595;BME280;8410;52.532;13.336;2022-07-22T05:01:38;101309.72;;;23.88;74.52
16595;BME280;8410;52.532;13.336;2022-07-22T05:04:06;101300.59;;;23.45;76.41
16595;BME280;8410;52.532;13.336;2022-07-22T05:06:35;101309.38;;;23.72;75.09
16595;BME280;8410;52.532;13.336;2022-07-22T05:09:03;101306.16;;;23.89;75.20
16595;BME280;8410;52.532;13.336;2022-07-22T05:11:31;101309.94;;;23.82;75.29
16595;BME280;8410;52.532;13.336;2022-07-22T05:13:59;101304.44;;;23.88;74.32
16595;BME280;8410;52.532;13.336;2022-07-22T05:16:27;101302.69;;;24.14;73.37
16595;BME280;8410;52.532;13.336;2022-07-22T05:18:55;101306.72;;;23.99;73.87
16595;BME280;8410;52.532;13.336;2022-07-22T05:21:23;101315.16;;;23.55;76.31
16595;BME280;8410;52.532;13.336;2022-07-22T05:23:52;101311.00;;;23.76;75.37
16595;BME280;8410;52.532;13.336;2022-07-22T05:26:20;101306.00;;;24.19;73.99
16595;BME280;8410;52.532;13.336;2022-07-22T05:28:52;101313.34;;;23.84;75.02
16595;BME280;8410;52.532;13.336;2022-07-22T05:31:20;101313.59;;;24.28;73.50
16595;BME280;8410;52.532;13.336;2022-07-22T05:33:48;101311.63;;;23.83;74.68
16595;BME280;8410;52.532;13.336;2022-07-22T05:36:17;101317.25;;;23.71;75.53
16595;BME280;8410;52.532;13.336;2022-07-22T05:38:45;101313.50;;;23.51;76.94
16595;BME280;8410;52.532;13.336;2022-07-22T05:41:15;101316.50;;;23.95;75.39
16595;BME280;8410;52.532;13.336;2022-07-22T05:43:43;101309.31;;;24.01;74.33
16595;BME280;8410;52.532;13.336;2022-07-22T05:46:11;101324.75;;;23.56;76.45
16595;BME280;8410;52.532;13.336;2022-07-22T05:48:38;101322.03;;;23.86;75.74
16595;BME280;8410;52.532;13.336;2022-07-22T05:51:11;101315.94;;;24.11;74.11
16595;BME280;8410;52.532;13.336;2022-07-22T05:53:41;101323.50;;;23.68;76.19
16595;BME280;8410;52.532;13.336;2022-07-22T05:56:10;101327.56;;;24.30;72.93
16595;BME280;8410;52.532;13.336;2022-07-22T05:58:41;101326.91;;;23.98;74.02
16595;BME280;8410;52.532;13.336;2022-07-22T06:01:10;101321.53;;;24.02;74.38
16595;BME280;8410;52.532;13.336;2022-07-22T06:03:39;101320.88;;;24.70;71.87
16595;BME280;8410;52.532;13.336;2022-07-22T06:06:06;101320.25;;;24.38;72.42
16595;BME280;8410;52.532;13.336;2022-07-22T06:08:36;101320.41;;;24.82;71.41
16595;BME280;8410;52.532;13.336;2022-07-22T06:11:04;101321.78;;;24.69;71.68
16595;BME280;8410;52.532;13.336;2022-07-22T06:13:33;101323.25;;;24.53;71.69
16595;BME280;8410;52.532;13.336;2022-07-22T06:16:03;101324.75;;;24.10;73.92
16595;BME280;8410;52.532;13.336;2022-07-22T06:18:31;101330.34;;;23.74;75.81
16595;BME280;8410;52.532;13.336;2022-07-22T06:20:59;101319.59;;;24.80;70.96
16595;BME280;8410;52.532;13.336;2022-07-22T06:23:27;101325.16;;;23.97;74.59
16595;BME280;8410;52.532;13.336;2022-07-22T06:25:55;101326.16;;;23.67;75.27
16595;BME280;8410;52.532;13.336;2022-07-22T06:28:23;101319.13;;;23.95;74.14
16595;BME280;8410;52.532;13.336;2022-07-22T06:30:50;101316.56;;;24.42;73.06
16595;BME280;8410;52.532;13.336;2022-07-22T06:33:20;101320.13;;;24.41;72.59
16595;BME280;8410;52.532;13.336;2022-07-22T06:35:48;101317.34;;;24.70;72.06
16595;BME280;8410;52.532;13.336;2022-07-22T06:38:15;101324.81;;;24.33;72.43
16595;BME280;8410;52.532;13.336;2022-07-22T06:40:57;101324.06;;;24.78;71.06
16595;BME280;8410;52.532;13.336;2022-07-22T06:43:26;101318.66;;;25.05;70.71
16595;BME280;8410;52.532;13.336;2022-07-22T06:45:54;101322.56;;;24.95;69.45
16595;BME280;8410;52.532;13.336;2022-07-22T06:48:23;101323.56;;;24.92;70.44
16595;BME280;8410;52.532;13.336;2022-07-22T06:50:51;101327.22;;;24.39;72.43
16595;BME280;8410;52.532;13.336;2022-07-22T06:53:19;101324.97;;;24.29;73.38
16595;BME280;8410;52.532;13.336;2022-07-22T06:55:48;101330.72;;;24.65;71.39
16595;BME280;8410;52.532;13.336;2022-07-22T06:58:16;101319.94;;;24.48;73.33
16595;BME280;8410;52.532;13.336;2022-07-22T07:00:43;101322.66;;;25.15;70.29
16595;BME280;8410;52.532;13.336;2022-07-22T07:03:12;101319.00;;;25.41;68.84
16595;BME280;8410;52.532;13.336;2022-07-22T07:06:01;101324.84;;;25.04;70.89
16595;BME280;8410;52.532;13.336;2022-07-22T07:08:30;101317.03;;;25.90;67.65
16595;BME280;8410;52.532;13.336;2022-07-22T07:10:58;101321.44;;;25.68;68.33
16595;BME280;8410;52.532;13.336;2022-07-22T07:13:26;101323.00;;;25.29;69.47
16595;BME280;8410;52.532;13.336;2022-07-22T07:15:54;101325.91;;;25.23;69.38
16595;BME280;8410;52.532;13.336;2022-07-22T07:18:21;101319.25;;;25.57;68.98
16595;BME280;8410;52.532;13.336;2022-07-22T07:20:50;101318.88;;;25.66;68.59
16595;BME280;8410;52.532;13.336;2022-07-22T07:23:19;101325.94;;;25.22;69.96
16595;BME280;8410;52.532;13.336;2022-07-22T07:25:47;101306.25;;;26.15;67.10
16595;BME280;8410;52.532;13.336;2022-07-22T07:28:15;101313.94;;;26.01;67.21
16595;BME280;8410;52.532;13.336;2022-07-22T07:30:46;101306.13;;;25.98;67.09
16595;BME280;8410;52.532;13.336;2022-07-22T07:33:14;101303.78;;;25.70;68.81
16595;BME280;8410;52.532;13.336;2022-07-22T07:35:42;101306.53;;;25.89;66.97
16595;BME280;8410;52.532;13.336;2022-07-22T07:38:10;101309.63;;;25.77;67.83
16595;BME280;8410;52.532;13.336;2022-07-22T07:40:39;101321.22;;;25.52;69.06
16595;BME280;8410;52.532;13.336;2022-07-22T07:43:07;101312.59;;;25.91;67.64
16595;BME280;8410;52.532;13.336;2022-07-22T07:45:37;101310.75;;;25.93;67.49
16595;BME280;8410;52.532;13.336;2022-07-22T07:48:06;101310.69;;;26.15;66.18
16595;BME280;8410;52.532;13.336;2022-07-22T07:50:34;101312.44;;;26.35;65.85
16595;BME280;8410;52.532;13.336;2022-07-22T07:53:02;101313.91;;;25.37;69.55
16595;BME280;8410;52.532;13.336;2022-07-22T07:55:30;101312.38;;;25.31;69.61
16595;BME280;8410;52.532;13.336;2022-07-22T07:58:01;101305.81;;;26.45;66.46
16595;BME280;8410;52.532;13.336;2022-07-22T08:00:29;101305.47;;;26.92;63.67
16595;BME280;8410;52.532;13.336;2022-07-22T08:02:59;101317.53;;;25.56;68.11
16595;BME280;8410;52.532;13.336;2022-07-22T08:05:29;101315.22;;;25.26;70.45
16595;BME280;8410;52.532;13.336;2022-07-22T08:07:57;101308.31;;;26.48;66.40
16595;BME280;8410;52.532;13.336;2022-07-22T08:10:25;101311.09;;;27.22;63.67
16595;BME280;8410;52.532;13.336;2022-07-22T08:13:18;101301.00;;;27.67;62.42
16595;BME280;8410;52.532;13.336;2022-07-22T08:15:46;101300.34;;;26.89;64.72
16595;BME280;8410;52.532;13.336;2022-07-22T08:18:14;101304.22;;;26.99;63.59
16595;BME280;8410;52.532;13.336;2022-07-22T08:20:42;101307.81;;;26.98;62.62
16595;BME280;8410;52.532;13.336;2022-07-22T08:23:10;101311.38;;;27.16;62.61
16595;BME280;8410;52.532;13.336;2022-07-22T08:25:39;101310.03;;;26.70;63.42
16595;BME280;8410;52.532;13.336;2022-07-22T08:28:07;101313.75;;;26.45;64.08
16595;BME280;8410;52.532;13.336;2022-07-22T08:30:36;101312.19;;;26.00;65.82
16595;BME280;8410;52.532;13.336;2022-07-22T08:33:06;101311.81;;;26.09;65.39
16595;BME280;8410;52.532;13.336;2022-07-22T08:35:34;101318.84;;;25.46;66.46
16595;BME280;8410;52.532;13.336;2022-07-22T08:38:02;101322.19;;;25.27;68.63
16595;BME280;8410;52.532;13.336;2022-07-22T08:40:30;101321.69;;;25.62;65.53
16595;BME280;8410;52.532;13.336;2022-07-22T08:42:58;101337.16;;;25.27;67.40
16595;BME280;8410;52.532;13.336;2022-07-22T08:45:30;101330.19;;;25.48;66.23
16595;BME280;8410;52.532;13.336;2022-07-22T08:47:59;101334.44;;;25.28;67.96
16595;BME280;8410;52.532;13.336;2022-07-22T08:50:30;101338.69;;;25.09;68.75
16595;BME280;8410;52.532;13.336;2022-07-22T08:52:58;101324.53;;;25.57;67.73
16595;BME280;8410;52.532;13.336;2022-07-22T08:55:26;101323.28;;;26.08;66.12
16595;BME280;8410;52.532;13.336;2022-07-22T08:57:54;101330.53;;;26.24;65.79
16595;BME280;8410;52.532;13.336;2022-07-22T09:00:22;101323.84;;;26.35;65.47
16595;BME280;8410;52.532;13.336;2022-07-22T09:02:50;101330.94;;;26.55;64.69
16595;BME280;8410;52.532;13.336;2022-07-22T09:05:20;101331.56;;;26.40;65.38
16595;BME280;8410;52.532;13.336;2022-07-22T09:08:07;101321.97;;;26.18;65.21
16595;BME280;8410;52.532;13.336;2022-07-22T09:10:36;101328.50;;;26.70;64.04
16595;BME280;8410;52.532;13.336;2022-07-22T09:13:07;101326.72;;;26.31;64.77
16595;BME280;8410;52.532;13.336;2022-07-22T09:15:39;101327.91;;;26.24;64.89
16595;BME280;8410;52.532;13.336;2022-07-22T09:18:12;101330.00;;;26.15;65.32
16595;BME280;8410;52.532;13.336;2022-07-22T09:20:42;101326.31;;;25.99;66.09
16595;BME280;8410;52.532;13.336;2022-07-22T09:23:14;101331.28;;;26.07;65.08
16595;BME280;8410;52.532;13.336;2022-07-22T09:25:44;101335.38;;;25.71;66.44
16595;BME280;8410;52.532;13.336;2022-07-22T09:28:20;101330.00;;;25.95;65.88
16595;BME280;8410;52.532;13.336;2022-07-22T09:30:53;101332.50;;;25.98;64.98
16595;BME280;8410;52.532;13.336;2022-07-22T09:33:24;101338.66;;;26.19;64.79
16595;BME280;8410;52.532;13.336;2022-07-22T09:36:03;101338.72;;;26.17;65.24
16595;BME280;8410;52.532;13.336;2022-07-22T09:38:31;101340.28;;;26.42;63.41
16595;BME280;8410;52.532;13.336;2022-07-22T09:41:03;101335.38;;;26.74;63.11
16595;BME280;8410;52.532;13.336;2022-07-22T09:43:35;101337.81;;;26.78;62.55
16595;BME280;8410;52.532;13.336;2022-07-22T09:46:04;101340.91;;;26.68;62.54
16595;BME280;8410;52.532;13.336;2022-07-22T09:48:32;101338.38;;;27.23;62.06
16595;BME280;8410;52.532;13.336;2022-07-22T09:51:02;101336.22;;;27.31;61.13
16595;BME280;8410;52.532;13.336;2022-07-22T09:53:32;101345.16;;;26.72;63.11
16595;BME280;8410;52.532;13.336;2022-07-22T09:56:04;101350.94;;;26.80;63.33
16595;BME280;8410;52.532;13.336;2022-07-22T09:58:32;101345.75;;;26.97;63.25
16595;BME280;8410;52.532;13.336;2022-07-22T10:01:05;101350.59;;;27.06;62.37
16595;BME280;8410;52.532;13.336;2022-07-22T10:03:36;101344.72;;;26.81;63.66
16595;BME280;8410;52.532;13.336;2022-07-22T10:06:07;101356.34;;;26.58;64.53
16595;BME280;8410;52.532;13.336;2022-07-22T10:08:38;101357.50;;;26.90;64.01
16595;BME280;8410;52.532;13.336;2022-07-22T10:11:07;101356.50;;;26.74;63.69
16595;BME280;8410;52.532;13.336;2022-07-22T10:13:38;101360.03;;;26.54;64.85
16595;BME280;8410;52.532;13.336;2022-07-22T10:16:08;101357.91;;;26.81;63.33
16595;BME280;8410;52.532;13.336;2022-07-22T10:18:37;101349.66;;;26.29;65.87
16595;BME280;8410;52.532;13.336;2022-07-22T10:21:09;101355.84;;;26.48;64.71
16595;BME280;8410;52.532;13.336;2022-07-22T10:24:07;101352.56;;;26.64;63.27
16595;BME280;8410;52.532;13.336;2022-07-22T10:26:50;101348.88;;;27.05;62.96
16595;BME280;8410;52.532;13.336;2022-07-22T10:29:27;101350.22;;;26.95;63.14
16595;BME280;8410;52.532;13.336;2022-07-22T10:32:23;101352.09;;;26.93;62.97
16595;BME280;8410;52.532;13.336;2022-07-22T10:35:24;101353.19;;;27.27;61.95
16595;BME280;8410;52.532;13.336;2022-07-22T10:37:57;101348.78;;;27.07;62.94
16595;BME280;8410;52.532;13.336;2022-07-22T10:40:27;101341.13;;;27.21;62.05
16595;BME280;8410;52.532;13.336;2022-07-22T10:43:09;101346.50;;;26.80;62.74
16595;BME280;8410;52.532;13.336;2022-07-22T10:45:45;101345.78;;;27.15;62.04
16595;BME280;8410;52.532;13.336;2022-07-22T10:48:17;101350.22;;;26.76;63.19
16595;BME280;8410;52.532;13.336;2022-07-22T10:50:52;101355.09;;;24.70;69.97
16595;BME280;8410;52.532;13.336;2022-07-22T10:53:38;101359.31;;;24.74;71.27
16595;BME280;8410;52.532;13.336;2022-07-22T10:56:15;101371.28;;;25.30;69.31
16595;BME280;8410;52.532;13.336;2022-07-22T10:58:47;101352.59;;;26.23;65.50
16595;BME280;8410;52.532;13.336;2022-07-22T11:01:19;101360.94;;;25.91;66.47
16595;BME280;8410;52.532;13.336;2022-07-22T11:03:49;101365.06;;;24.62;71.69
16595;BME280;8410;52.532;13.336;2022-07-22T11:06:29;101358.91;;;25.76;67.70
16595;BME280;8410;52.532;13.336;2022-07-22T11:09:02;101358.13;;;25.96;66.18
16595;BME280;8410;52.532;13.336;2022-07-22T11:11:39;101359.84;;;25.53;67.28
16595;BME280;8410;52.532;13.336;2022-07-22T11:14:14;101360.47;;;25.38;69.19
16595;BME280;8410;52.532;13.336;2022-07-22T11:16:43;101359.91;;;26.16;65.64
16595;BME280;8410;52.532;13.336;2022-07-22T11:19:12;101349.53;;;26.32;64.28
16595;BME280;8410;52.532;13.336;2022-07-22T11:21:40;101359.34;;;25.21;68.20
16595;BME280;8410;52.532;13.336;2022-07-22T11:24:14;101367.50;;;24.67;71.01
16595;BME280;8410;52.532;13.336;2022-07-22T11:26:44;101359.31;;;24.74;70.63
16595;BME280;8410;52.532;13.336;2022-07-22T11:29:17;101365.44;;;25.45;69.47
16595;BME280;8410;52.532;13.336;2022-07-22T11:31:46;101363.88;;;25.62;68.52
16595;BME280;8410;52.532;13.336;2022-07-22T11:34:16;101360.06;;;25.25;69.07
16595;BME280;8410;52.532;13.336;2022-07-22T11:36:46;101357.25;;;25.51;69.15
16595;BME280;8410;52.532;13.336;2022-07-22T11:39:20;101358.25;;;25.49;67.60
16595;BME280;8410;52.532;13.336;2022-07-22T11:41:51;101351.00;;;26.18;65.96
16595;BME280;8410;52.532;13.336;2022-07-22T11:44:20;101345.72;;;26.39;64.87
16595;BME280;8410;52.532;13.336;2022-07-22T11:46:49;101345.41;;;27.24;62.06
16595;BME280;8410;52.532;13.336;2022-07-22T11:49:20;101346.22;;;26.47;63.71
16595;BME280;8410;52.532;13.336;2022-07-22T11:51:51;101345.66;;;26.20;64.97
16595;BME280;8410;52.532;13.336;2022-07-22T11:54:21;101344.31;;;26.90;62.99
16595;BME280;8410;52.532;13.336;2022-07-22T11:56:49;101350.22;;;26.57;64.50
16595;BME280;8410;52.532;13.336;2022-07-22T11:59:23;101346.88;;;26.11;65.38
16595;BME280;8410;52.532;13.336;2022-07-22T12:01:51;101350.09;;;26.20;64.37
16595;BME280;8410;52.532;13.336;2022-07-22T12:04:22;101342.22;;;26.18;65.27
16595;BME280;8410;52.532;13.336;2022-07-22T12:06:53;101349.97;;;26.01;64.33
16595;BME280;8410;52.532;13.336;2022-07-22T12:09:26;101343.78;;;26.22;64.56
16595;BME280;8410;52.532;13.336;2022-07-22T12:11:57;101348.66;;;25.68;65.82
16595;BME280;8410;52.532;13.336;2022-07-22T12:14:28;101361.56;;;25.32;66.16
16595;BME280;8410;52.532;13.336;2022-07-22T12:16:59;101353.59;;;25.56;66.62
16595;BME280;8410;52.532;13.336;2022-07-22T12:19:30;101358.63;;;25.40;66.56
16595;BME280;8410;52.532;13.336;2022-07-22T12:22:03;101357.25;;;25.06;68.13
16595;BME280;8410;52.532;13.336;2022-07-22T12:24:35;101363.91;;;25.40;67.32
16595;BME280;8410;52.532;13.336;2022-07-22T12:27:06;101364.63;;;25.43;67.77
16595;BME280;8410;52.532;13.336;2022-07-22T12:29:44;101362.09;;;25.62;66.56
16595;BME280;8410;52.532;13.336;2022-07-22T12:32:16;101367.81;;;24.07;71.77
16595;BME280;8410;52.532;13.336;2022-07-22T12:34:56;101366.03;;;24.08;72.68
16595;BME280;8410;52.532;13.336;2022-07-22T12:37:26;101362.72;;;25.47;68.41
16595;BME280;8410;52.532;13.336;2022-07-22T12:39:59;101367.34;;;24.71;69.35
16595;BME280;8410;52.532;13.336;2022-07-22T12:42:30;101359.03;;;24.58;69.91
16595;BME280;8410;52.532;13.336;2022-07-22T12:45:03;101361.63;;;24.83;69.11
16595;BME280;8410;52.532;13.336;2022-07-22T12:47:44;101355.16;;;24.43;70.05
16595;BME280;8410;52.532;13.336;2022-07-22T12:50:23;101355.44;;;25.32;68.22
16595;BME280;8410;52.532;13.336;2022-07-22T12:52:54;101357.25;;;25.73;65.85
16595;BME280;8410;52.532;13.336;2022-07-22T12:55:46;101346.50;;;26.00;63.54
16595;BME280;8410;52.532;13.336;2022-07-22T12:58:16;101362.09;;;24.95;66.35
16595;BME280;8410;52.532;13.336;2022-07-22T13:00:47;101349.69;;;24.50;67.93
16595;BME280;8410;52.532;13.336;2022-07-22T13:03:16;101365.44;;;23.99;69.77
16595;BME280;8410;52.532;13.336;2022-07-22T13:05:47;101358.78;;;23.61;71.21